createdAt,value
2022-10-19T00:01:36.916Z,2.85
2022-10-19T00:04:07.839Z,2.80
2022-10-19T00:06:36.731Z,2.70
2022-10-19T00:09:15.105Z,2.67
2022-10-19T00:11:43.566Z,2.70
2022-10-19T00:14:17.099Z,3.05
2022-10-19T00:16:44.388Z,2.65
2022-10-19T00:19:20.197Z,2.70
2022-10-19T00:21:47.673Z,2.65
2022-10-19T00:24:14.675Z,2.58
2022-10-19T00:26:41.370Z,2.50
2022-10-19T00:29:08.491Z,2.65
2022-10-19T00:31:35.163Z,2.33
2022-10-19T00:34:01.861Z,2.47
2022-10-19T00:36:34.092Z,2.35
2022-10-19T00:39:01.719Z,2.83
2022-10-19T00:41:30.969Z,2.22
2022-10-19T00:44:08.284Z,2.53
2022-10-19T00:46:37.379Z,2.00
2022-10-19T00:49:09.983Z,2.15
2022-10-19T00:51:40.176Z,2.40
2022-10-19T00:54:07.780Z,1.85
2022-10-19T00:56:35.431Z,2.78
2022-10-19T00:59:05.824Z,2.03
2022-10-19T01:01:34.012Z,1.80
2022-10-19T01:04:01.718Z,1.67
2022-10-19T01:06:28.766Z,1.95
2022-10-19T01:08:55.441Z,1.80
2022-10-19T01:11:43.578Z,1.70
2022-10-19T01:14:29.124Z,1.65
2022-10-19T01:17:29.718Z,1.88
2022-10-19T01:20:08.408Z,1.80
2022-10-19T01:22:59.756Z,1.80
2022-10-19T01:25:48.212Z,1.90
2022-10-19T01:28:42.958Z,1.77
2022-10-19T01:31:30.295Z,2.13
2022-10-19T01:34:23.471Z,1.42
2022-10-19T01:37:04.768Z,1.50
2022-10-19T01:39:39.778Z,2.10
2022-10-19T01:42:29.466Z,1.98
2022-10-19T01:45:16.982Z,2.08
2022-10-19T01:48:03.324Z,2.20
2022-10-19T01:50:54.824Z,1.83
2022-10-19T01:53:21.948Z,1.65
2022-10-19T01:55:51.557Z,1.75
2022-10-19T01:58:23.777Z,1.95
2022-10-19T02:00:51.712Z,2.00
2022-10-19T02:03:18.620Z,2.53
2022-10-19T02:05:47.326Z,2.33
2022-10-19T02:08:18.414Z,1.77
2022-10-19T02:10:45.423Z,1.63
2022-10-19T02:13:14.362Z,1.60
2022-10-19T02:15:44.219Z,1.45
2022-10-19T02:18:13.587Z,1.67
2022-10-19T02:20:40.385Z,1.67
2022-10-19T02:23:07.655Z,1.73
2022-10-19T02:25:34.666Z,1.65
2022-10-19T02:28:02.651Z,1.77
2022-10-19T02:30:29.333Z,1.45
2022-10-19T02:32:56.093Z,1.55
2022-10-19T02:35:23.182Z,1.40
2022-10-19T02:37:49.976Z,1.85
2022-10-19T02:40:16.720Z,1.55
2022-10-19T02:42:49.180Z,1.95
2022-10-19T02:45:22.722Z,1.88
2022-10-19T02:48:02.790Z,1.80
2022-10-19T02:50:29.582Z,1.42
2022-10-19T02:52:58.524Z,1.50
2022-10-19T02:55:25.347Z,1.30
2022-10-19T02:57:52.030Z,1.33
2022-10-19T03:00:18.745Z,1.33
2022-10-19T03:02:45.455Z,1.40
2022-10-19T03:05:12.119Z,1.58
2022-10-19T03:07:42.460Z,1.50
2022-10-19T03:10:09.660Z,1.30
2022-10-19T03:12:36.347Z,1.17
2022-10-19T03:15:03.623Z,1.30
2022-10-19T03:17:30.296Z,1.20
2022-10-19T03:19:56.952Z,1.40
2022-10-19T03:22:23.656Z,1.63
2022-10-19T03:24:50.538Z,1.08
2022-10-19T03:27:17.342Z,1.60
2022-10-19T03:29:43.995Z,1.23
2022-10-19T03:32:10.823Z,1.52
2022-10-19T03:34:37.453Z,1.38
2022-10-19T03:37:04.144Z,1.13
2022-10-19T03:39:30.969Z,1.50
2022-10-19T03:41:57.608Z,1.23
2022-10-19T03:44:24.280Z,1.80
2022-10-19T03:46:51.008Z,1.40
2022-10-19T03:49:17.711Z,1.42
2022-10-19T03:51:44.348Z,2.08
2022-10-19T03:54:15.657Z,1.45
2022-10-19T03:56:43.023Z,1.58
2022-10-19T03:59:13.048Z,1.30
2022-10-19T04:01:41.593Z,1.55
2022-10-19T04:04:12.802Z,1.38
2022-10-19T04:06:40.868Z,1.10
2022-10-19T04:09:09.094Z,1.20
2022-10-19T04:11:36.153Z,1.10
2022-10-19T04:14:02.904Z,1.35
2022-10-19T04:16:30.369Z,1.00
2022-10-19T04:18:57.618Z,1.10
2022-10-19T04:21:31.798Z,0.90
2022-10-19T04:24:10.691Z,1.02
2022-10-19T04:26:42.732Z,1.20
2022-10-19T04:29:10.122Z,0.88
2022-10-19T04:31:37.294Z,1.08
2022-10-19T04:34:04.202Z,0.63
2022-10-19T04:36:30.922Z,0.82
2022-10-19T04:38:57.626Z,0.77
2022-10-19T04:41:24.274Z,0.70
2022-10-19T04:43:57.829Z,0.80
2022-10-19T04:46:24.996Z,1.05
2022-10-19T04:48:52.018Z,0.77
2022-10-19T04:51:19.921Z,0.80
2022-10-19T04:53:47.131Z,1.00
2022-10-19T04:56:35.355Z,0.93
2022-10-19T04:59:02.191Z,0.90
2022-10-19T05:01:30.435Z,0.90
2022-10-19T05:03:59.391Z,0.73
2022-10-19T05:06:26.686Z,1.38
2022-10-19T05:08:53.811Z,1.20
2022-10-19T05:11:20.805Z,1.33
2022-10-19T05:13:48.071Z,1.02
2022-10-19T05:16:16.934Z,0.98
2022-10-19T05:18:47.366Z,0.88
2022-10-19T05:21:14.498Z,0.90
2022-10-19T05:23:42.284Z,2.13
2022-10-19T05:26:12.973Z,0.80
2022-10-19T05:28:39.847Z,0.90
2022-10-19T05:31:17.865Z,0.70
2022-10-19T05:33:45.350Z,0.77
2022-10-19T05:36:16.413Z,0.77
2022-10-19T05:38:43.911Z,1.15
2022-10-19T05:41:10.925Z,0.95
2022-10-19T05:43:37.746Z,0.70
2022-10-19T05:46:09.874Z,0.95
2022-10-19T05:48:36.729Z,1.48
2022-10-19T05:51:05.467Z,0.70
2022-10-19T05:53:32.942Z,1.05
2022-10-19T05:55:59.709Z,0.80
2022-10-19T05:58:26.443Z,0.85
2022-10-19T06:00:58.657Z,0.70
2022-10-19T06:03:25.825Z,0.73
2022-10-19T06:05:53.325Z,0.73
2022-10-19T06:08:21.163Z,0.70
2022-10-19T06:10:48.389Z,0.60
2022-10-19T06:13:16.358Z,0.80
2022-10-19T06:15:43.371Z,0.82
2022-10-19T06:18:12.080Z,0.70
2022-10-19T06:20:40.542Z,0.80
2022-10-19T06:23:08.020Z,0.80
2022-10-19T06:25:36.069Z,1.20
2022-10-19T06:28:03.583Z,1.23
2022-10-19T06:30:30.413Z,1.00
2022-10-19T06:32:58.931Z,0.73
2022-10-19T06:35:25.852Z,0.82
2022-10-19T06:37:52.509Z,1.20
2022-10-19T06:40:19.305Z,1.08
2022-10-19T06:42:46.048Z,0.90
2022-10-19T06:45:12.815Z,0.80
2022-10-19T06:47:39.638Z,0.80
2022-10-19T06:50:09.725Z,1.17
2022-10-19T06:52:36.876Z,0.80
2022-10-19T06:55:04.067Z,0.98
2022-10-19T06:57:30.997Z,1.02
2022-10-19T06:59:57.841Z,0.73
2022-10-19T07:02:24.746Z,1.00
2022-10-19T07:04:51.514Z,0.80
2022-10-19T07:07:18.294Z,0.70
2022-10-19T07:09:45.048Z,0.60
2022-10-19T07:12:12.013Z,1.13
2022-10-19T07:14:39.839Z,0.63
2022-10-19T07:17:07.144Z,0.70
2022-10-19T07:19:34.006Z,0.60
2022-10-19T07:22:00.867Z,0.90
2022-10-19T07:24:27.895Z,0.80
2022-10-19T07:26:54.712Z,0.63
2022-10-19T07:29:21.616Z,0.60
2022-10-19T07:31:48.575Z,0.70
2022-10-19T07:34:15.610Z,0.85
2022-10-19T07:36:45.475Z,0.60
2022-10-19T07:39:12.829Z,0.68
2022-10-19T07:41:39.999Z,1.67
2022-10-19T07:44:07.511Z,0.50
2022-10-19T07:46:38.816Z,0.77
2022-10-19T07:49:09.812Z,0.60
2022-10-19T07:51:40.126Z,0.75
2022-10-19T07:54:06.926Z,0.70
2022-10-19T07:56:35.007Z,1.80
2022-10-19T07:59:02.886Z,1.08
2022-10-19T08:01:31.831Z,0.55
2022-10-19T08:06:46.659Z,0.77
2022-10-19T08:09:27.761Z,0.90
2022-10-19T08:12:00.098Z,1.20
2022-10-19T08:14:26.972Z,0.60
2022-10-19T08:16:53.692Z,0.50
2022-10-19T08:19:20.359Z,0.50
2022-10-19T08:21:47.182Z,0.52
2022-10-19T08:24:15.595Z,0.60
2022-10-19T08:26:42.592Z,0.77
2022-10-19T08:29:15.040Z,0.65
2022-10-19T08:31:42.435Z,0.70
2022-10-19T08:34:09.188Z,3.08
2022-10-19T08:36:38.527Z,1.58
2022-10-19T08:39:07.587Z,0.50
2022-10-19T08:41:40.495Z,0.82
2022-10-19T08:44:25.958Z,0.75
2022-10-19T08:47:40.550Z,0.55
2022-10-19T08:50:19.797Z,0.60
2022-10-19T08:52:51.591Z,0.65
2022-10-19T08:55:23.333Z,0.73
2022-10-19T08:58:27.690Z,0.68
2022-10-19T09:01:07.667Z,0.95
2022-10-19T09:03:56.735Z,0.82
2022-10-19T09:06:30.584Z,1.25
2022-10-19T09:08:57.854Z,0.70
2022-10-19T09:11:27.595Z,0.40
2022-10-19T09:14:05.384Z,0.60
2022-10-19T09:16:33.244Z,0.80
2022-10-19T09:18:59.991Z,0.77
2022-10-19T09:21:46.112Z,0.60
2022-10-19T09:24:39.272Z,0.60
2022-10-19T09:27:07.593Z,1.92
2022-10-19T09:29:41.664Z,0.60
2022-10-19T09:32:38.774Z,0.70
2022-10-19T09:35:08.405Z,1.00
2022-10-19T09:37:40.598Z,0.90
2022-10-19T09:40:23.977Z,0.70
2022-10-19T09:43:03.393Z,0.65
2022-10-19T09:45:50.486Z,0.98
2022-10-19T09:48:23.903Z,1.00
2022-10-19T09:50:59.727Z,0.70
2022-10-19T09:53:27.093Z,0.60
2022-10-19T09:55:59.786Z,0.70
2022-10-19T09:58:32.090Z,0.60
2022-10-19T10:01:00.690Z,0.73
2022-10-19T10:03:36.239Z,0.77
2022-10-19T10:06:06.369Z,0.73
2022-10-19T10:08:36.263Z,0.85
2022-10-19T10:11:14.779Z,0.68
2022-10-19T10:13:44.215Z,1.02
2022-10-19T10:16:15.744Z,0.70
2022-10-19T10:19:08.488Z,0.90
2022-10-19T10:21:51.133Z,0.80
2022-10-19T10:24:19.583Z,0.80
2022-10-19T10:26:52.156Z,1.05
2022-10-19T10:29:25.863Z,0.77
2022-10-19T10:32:01.852Z,0.60
2022-10-19T10:34:59.949Z,0.70
2022-10-19T10:37:38.480Z,0.73
2022-10-19T10:40:06.216Z,0.75
2022-10-19T10:42:37.479Z,0.70
2022-10-19T10:45:05.203Z,1.35
2022-10-19T10:47:32.192Z,0.73
2022-10-19T10:50:03.025Z,0.70
2022-10-19T10:52:31.714Z,0.60
2022-10-19T10:55:17.981Z,0.52
2022-10-19T10:57:48.301Z,0.65
2022-10-19T11:00:20.552Z,0.82
2022-10-19T11:03:12.284Z,0.73
2022-10-19T11:05:41.322Z,0.55
2022-10-19T11:08:41.961Z,0.50
2022-10-19T11:11:24.632Z,0.40
2022-10-19T11:14:19.257Z,0.35
2022-10-19T11:16:48.154Z,0.43
2022-10-19T11:19:22.539Z,0.73
2022-10-19T11:22:31.179Z,0.43
2022-10-19T11:25:03.903Z,0.40
2022-10-19T11:27:55.671Z,0.57
2022-10-19T11:30:23.968Z,0.55
2022-10-19T11:33:12.504Z,0.50
2022-10-19T11:35:47.781Z,0.50
2022-10-19T11:38:22.705Z,0.55
2022-10-19T11:41:20.950Z,0.70
2022-10-19T11:43:50.784Z,0.57
2022-10-19T11:46:26.408Z,0.77
2022-10-19T11:49:03.291Z,0.77
2022-10-19T11:51:52.129Z,0.52
2022-10-19T11:54:36.454Z,1.00
2022-10-19T11:57:09.463Z,0.35
2022-10-19T11:59:53.641Z,0.30
2022-10-19T12:02:48.756Z,0.55
2022-10-19T12:05:46.552Z,0.60
2022-10-19T12:08:53.754Z,0.40
2022-10-19T12:11:23.772Z,0.32
2022-10-19T12:14:09.094Z,0.50
2022-10-19T12:16:42.848Z,0.50
2022-10-19T12:19:17.890Z,0.30
2022-10-19T12:21:44.933Z,0.43
2022-10-19T12:24:16.727Z,0.30
2022-10-19T12:26:44.863Z,0.60
2022-10-19T12:29:22.394Z,0.47
2022-10-19T12:31:50.338Z,0.40
2022-10-19T12:34:28.944Z,0.50
2022-10-19T12:37:33.106Z,0.43
2022-10-19T12:40:19.980Z,0.25
2022-10-19T12:42:52.885Z,0.40
2022-10-19T12:45:35.015Z,0.30
2022-10-19T12:48:19.049Z,0.30
2022-10-19T12:50:48.870Z,0.30
2022-10-19T12:53:40.982Z,0.32
2022-10-19T12:56:19.194Z,0.30
2022-10-19T12:58:50.980Z,0.35
2022-10-19T13:01:35.822Z,0.40
2022-10-19T13:04:34.885Z,0.30
2022-10-19T13:07:04.123Z,0.30
2022-10-19T13:09:46.017Z,0.40
2022-10-19T13:12:19.592Z,0.30
2022-10-19T13:14:51.216Z,0.45
2022-10-19T13:17:44.321Z,0.25
2022-10-19T13:20:14.245Z,0.30
2022-10-19T13:22:41.740Z,0.30
2022-10-19T13:25:28.211Z,0.40
2022-10-19T13:28:02.491Z,0.32
2022-10-19T13:30:38.418Z,0.35
2022-10-19T13:33:29.756Z,0.30
2022-10-19T13:35:59.524Z,0.40
2022-10-19T13:38:39.360Z,0.25
2022-10-19T13:41:14.964Z,0.40
2022-10-19T13:43:50.641Z,0.35
2022-10-19T13:46:22.047Z,0.40
2022-10-19T13:49:07.185Z,0.40
2022-10-19T13:51:56.154Z,0.35
2022-10-19T13:54:47.214Z,0.30
2022-10-19T13:57:35.977Z,0.40
2022-10-19T14:00:25.200Z,0.52
2022-10-19T14:03:10.756Z,0.52
2022-10-19T14:06:06.546Z,0.30
2022-10-19T14:08:53.718Z,0.38
2022-10-19T14:11:25.743Z,0.40
2022-10-19T14:14:10.956Z,0.38
2022-10-19T14:16:51.870Z,0.32
2022-10-19T14:19:27.425Z,0.30
2022-10-19T14:22:01.154Z,0.55
2022-10-19T14:24:35.444Z,0.60
2022-10-19T14:27:06.768Z,0.40
2022-10-19T14:29:44.030Z,0.75
2022-10-19T14:32:11.622Z,0.40
2022-10-19T14:34:42.786Z,0.32
2022-10-19T14:37:42.545Z,0.40
2022-10-19T14:40:33.038Z,0.60
2022-10-19T14:43:01.585Z,0.52
2022-10-19T14:45:31.138Z,0.50
2022-10-19T14:48:02.647Z,0.40
2022-10-19T14:50:39.839Z,0.50
2022-10-19T14:53:42.184Z,1.00
2022-10-19T14:56:44.402Z,0.93
2022-10-19T15:02:34.600Z,0.40
2022-10-19T15:05:02.739Z,0.70
2022-10-19T15:07:40.212Z,0.95
2022-10-19T15:10:09.642Z,0.98
2022-10-19T15:12:40.777Z,1.30
2022-10-19T15:15:15.343Z,2.25
2022-10-19T15:17:51.625Z,2.17
2022-10-19T15:20:54.917Z,2.47
2022-10-19T15:23:29.667Z,2.30
2022-10-19T15:26:00.979Z,2.53
2022-10-19T15:28:39.158Z,2.42
2022-10-19T15:31:28.594Z,2.65
2022-10-19T15:34:00.671Z,2.67
2022-10-19T15:36:28.913Z,2.75
2022-10-19T15:39:11.162Z,3.55
2022-10-19T15:41:45.514Z,3.03
2022-10-19T15:44:31.629Z,2.55
2022-10-19T15:47:16.695Z,3.55
2022-10-19T15:49:43.463Z,2.42
2022-10-19T15:52:20.120Z,1.60
2022-10-19T15:54:51.288Z,1.80
2022-10-19T15:57:30.424Z,1.58
2022-10-19T15:59:59.230Z,1.38
2022-10-19T16:02:26.374Z,2.15
2022-10-19T16:04:54.270Z,1.88
2022-10-19T16:07:30.223Z,2.45
2022-10-19T16:10:00.271Z,4.22
2022-10-19T16:12:28.521Z,3.38
2022-10-19T16:14:55.361Z,3.63
2022-10-19T16:17:22.297Z,4.55
2022-10-19T16:19:50.028Z,3.78
2022-10-19T16:22:17.058Z,3.75
2022-10-19T16:24:44.795Z,3.72
2022-10-19T16:27:15.410Z,3.30
2022-10-19T16:29:43.533Z,3.03
2022-10-19T16:32:13.070Z,2.60
2022-10-19T16:34:39.981Z,3.00
2022-10-19T16:37:07.801Z,2.58
2022-10-19T16:39:34.811Z,2.75
2022-10-19T16:42:01.990Z,2.00
2022-10-19T16:44:28.795Z,1.85
2022-10-19T16:46:58.966Z,2.00
2022-10-19T16:49:25.799Z,1.70
2022-10-19T16:51:56.280Z,1.80
2022-10-19T16:54:24.604Z,2.47
2022-10-19T16:56:51.307Z,3.50
2022-10-19T16:59:19.236Z,3.00
2022-10-19T17:01:46.491Z,2.88
2022-10-19T17:04:15.192Z,2.85
2022-10-19T17:06:42.246Z,2.78
2022-10-19T17:11:56.527Z,2.97
2022-10-19T17:14:23.195Z,2.67
2022-10-19T17:16:49.961Z,2.70
2022-10-19T17:19:16.850Z,2.90
2022-10-19T17:21:43.624Z,3.20
2022-10-19T17:24:21.607Z,2.75
2022-10-19T17:26:52.019Z,3.65
2022-10-19T17:29:20.099Z,4.15
2022-10-19T17:31:48.478Z,4.78
2022-10-19T17:34:16.151Z,4.00
2022-10-19T17:36:44.893Z,4.00
2022-10-19T17:39:15.417Z,3.83
2022-10-19T17:41:42.194Z,3.75
2022-10-19T17:44:09.133Z,3.08
2022-10-19T17:46:35.884Z,2.40
2022-10-19T17:49:03.583Z,2.50
2022-10-19T17:51:32.324Z,2.25
2022-10-19T17:54:04.291Z,2.20
2022-10-19T17:56:31.796Z,2.50
2022-10-19T17:59:00.134Z,3.28
2022-10-19T18:01:27.128Z,3.58
2022-10-19T18:03:54.241Z,3.20
2022-10-19T18:06:30.600Z,4.03
2022-10-19T18:08:58.807Z,3.08
2022-10-19T18:11:31.216Z,3.17
2022-10-19T18:14:00.790Z,2.75
2022-10-19T18:16:30.896Z,3.00
2022-10-19T18:18:58.964Z,2.60
2022-10-19T18:21:30.344Z,2.85
2022-10-19T18:23:58.931Z,3.20
2022-10-19T18:26:29.404Z,3.10
2022-10-19T18:29:00.669Z,2.83
2022-10-19T18:31:30.294Z,2.58
2022-10-19T18:34:02.332Z,2.58
2022-10-19T18:36:29.789Z,2.20
2022-10-19T18:38:59.024Z,2.42
2022-10-19T18:41:26.397Z,2.45
2022-10-19T18:43:55.438Z,3.00
2022-10-19T18:46:23.360Z,2.92
2022-10-19T18:48:50.391Z,2.65
2022-10-19T18:51:18.152Z,2.88
2022-10-19T18:53:45.697Z,2.53
2022-10-19T18:56:14.004Z,2.55
2022-10-19T18:58:41.257Z,2.25
2022-10-19T19:01:10.406Z,1.70
2022-10-19T19:03:38.625Z,2.00
2022-10-19T19:06:12.146Z,1.95
2022-10-19T19:08:39.753Z,2.50
2022-10-19T19:11:15.475Z,2.00
2022-10-19T19:14:10.932Z,2.42
2022-10-19T19:16:40.943Z,2.53
2022-10-19T19:19:08.818Z,2.70
2022-10-19T19:21:36.734Z,2.88
2022-10-19T19:24:06.111Z,2.38
2022-10-19T19:26:35.619Z,2.72
2022-10-19T19:29:04.015Z,2.80
2022-10-19T19:31:30.914Z,2.63
2022-10-19T19:34:00.035Z,2.75
2022-10-19T19:36:30.079Z,2.72
2022-10-19T19:38:57.651Z,2.47
2022-10-19T19:41:24.430Z,2.90
2022-10-19T19:43:51.369Z,3.67
2022-10-19T19:46:19.656Z,3.67
2022-10-19T19:48:47.694Z,4.38
2022-10-19T19:51:21.142Z,5.05
2022-10-19T19:53:48.533Z,3.85
2022-10-19T19:56:15.980Z,4.25
2022-10-19T19:58:46.156Z,5.93
2022-10-19T20:01:15.733Z,4.55
2022-10-19T20:03:43.586Z,5.93
2022-10-19T20:06:10.868Z,5.03
2022-10-19T20:08:38.342Z,5.18
2022-10-19T20:11:11.373Z,4.93
2022-10-19T20:13:38.424Z,3.80
2022-10-19T20:16:16.634Z,4.55
2022-10-19T20:18:49.280Z,4.28
2022-10-19T20:21:17.889Z,3.70
2022-10-19T20:23:45.881Z,4.53
2022-10-19T20:26:20.078Z,4.32
2022-10-19T20:28:47.112Z,4.30
2022-10-19T20:31:14.056Z,4.10
2022-10-19T20:33:43.028Z,4.78
2022-10-19T20:36:13.623Z,4.72
2022-10-19T20:38:41.127Z,4.90
2022-10-19T20:41:09.822Z,5.55
2022-10-19T20:43:37.532Z,5.47
2022-10-19T20:46:05.794Z,4.97
2022-10-19T20:48:33.733Z,4.93
2022-10-19T20:51:13.964Z,5.30
2022-10-19T20:53:41.391Z,4.80
2022-10-19T20:56:10.585Z,4.43
2022-10-19T20:58:42.905Z,4.25
2022-10-19T21:01:18.156Z,4.25
2022-10-19T21:03:52.862Z,4.88
2022-10-19T21:06:21.192Z,4.53
2022-10-19T21:08:48.164Z,5.05
2022-10-19T21:11:17.849Z,5.35
2022-10-19T21:13:45.255Z,5.55
2022-10-19T21:16:14.600Z,5.75
2022-10-19T21:18:42.019Z,6.18
2022-10-19T21:21:14.954Z,6.03
2022-10-19T21:23:42.935Z,5.65
2022-10-19T21:26:09.757Z,5.50
2022-10-19T21:28:36.574Z,5.53
2022-10-19T21:31:08.435Z,4.90
2022-10-19T21:33:35.995Z,5.55
2022-10-19T21:36:08.416Z,5.43
2022-10-19T21:38:35.450Z,4.75
2022-10-19T21:41:07.986Z,5.32
2022-10-19T21:43:35.075Z,4.70
2022-10-19T21:46:02.929Z,5.18
2022-10-19T21:48:30.510Z,4.53
2022-10-19T21:50:57.294Z,4.43
2022-10-19T21:53:24.039Z,4.43
2022-10-19T21:55:52.171Z,4.72
2022-10-19T21:58:21.867Z,5.15
2022-10-19T22:00:48.600Z,4.45
2022-10-19T22:03:17.948Z,4.88
2022-10-19T22:05:51.770Z,4.28
2022-10-19T22:08:18.506Z,4.60
2022-10-19T22:10:47.315Z,4.10
2022-10-19T22:13:13.990Z,4.25
2022-10-19T22:15:41.245Z,4.28
2022-10-19T22:18:08.595Z,4.18
2022-10-19T22:20:36.615Z,4.22
2022-10-19T22:23:03.919Z,4.07
2022-10-19T22:25:31.259Z,4.75
2022-10-19T22:27:58.100Z,3.80
2022-10-19T22:30:25.069Z,4.07
2022-10-19T22:32:51.766Z,3.67
2022-10-19T22:35:18.435Z,4.20
2022-10-19T22:37:45.109Z,3.20
2022-10-19T22:40:12.138Z,3.58
2022-10-19T22:42:38.929Z,3.78
2022-10-19T22:45:06.370Z,4.43
2022-10-19T22:47:33.152Z,3.83
2022-10-19T22:49:59.877Z,3.50
2022-10-19T22:52:26.635Z,3.40
2022-10-19T22:54:53.621Z,4.22
2022-10-19T22:57:20.310Z,3.47
2022-10-19T22:59:47.025Z,3.70
2022-10-19T23:02:13.781Z,3.65
2022-10-19T23:04:40.483Z,3.50
2022-10-19T23:07:07.265Z,3.60
2022-10-19T23:09:34.174Z,3.13
2022-10-19T23:12:00.888Z,3.40
2022-10-19T23:14:27.599Z,3.00
2022-10-19T23:16:54.308Z,3.35
2022-10-19T23:19:21.135Z,3.17
2022-10-19T23:21:47.872Z,3.15
2022-10-19T23:24:17.590Z,3.00
2022-10-19T23:26:46.103Z,3.00
2022-10-19T23:29:12.857Z,2.80
2022-10-19T23:31:39.593Z,3.17
2022-10-19T23:34:06.318Z,2.67
2022-10-19T23:36:33.066Z,3.13
2022-10-19T23:38:59.816Z,2.97
2022-10-19T23:41:26.731Z,3.03
2022-10-19T23:43:53.378Z,2.70
2022-10-19T23:46:20.158Z,2.90
2022-10-19T23:48:46.920Z,3.95
2022-10-19T23:51:21.021Z,3.10
2022-10-19T23:53:49.984Z,2.88
2022-10-19T23:56:19.404Z,2.33
2022-10-19T23:58:46.224Z,3.10
